sensor_id;sensor_type;location;lat;lon;timestamp;pressure;altitude;pressure_sealevel;temperature;humidity
6134;BME280;3098;42.678;23.364;2023-02-21T00:01:54;95288.19;;;3.43;97.17
6134;BME280;3098;42.678;23.364;2023-02-21T00:04:38;95252.72;;;3.26;97.70
6134;BME280;3098;42.678;23.364;2023-02-21T00:07:24;95298.44;;;3.45;97.97
6134;BME280;3098;42.678;23.364;2023-02-21T00:10:11;95298.75;;;3.48;98.34
6134;BME280;3098;42.678;23.364;2023-02-21T00:12:57;95302.19;;;3.54;98.19
6134;BME280;3098;42.678;23.364;2023-02-21T00:15:42;95301.84;;;3.40;98.60
6134;BME280;3098;42.678;23.364;2023-02-21T00:18:26;95308.91;;;3.40;99.18
6134;BME280;3098;42.678;23.364;2023-02-21T00:21:11;95283.56;;;3.14;99.49
6134;BME280;3098;42.678;23.364;2023-02-21T00:23:57;95288.94;;;3.34;98.98
6134;BME280;3098;42.678;23.364;2023-02-21T00:26:41;95285.56;;;3.43;98.80
6134;BME280;3098;42.678;23.364;2023-02-21T00:29:25;95308.97;;;3.50;98.44
6134;BME280;3098;42.678;23.364;2023-02-21T00:32:10;95302.69;;;3.51;98.56
6134;BME280;3098;42.678;23.364;2023-02-21T00:34:55;95285.56;;;3.43;98.44
6134;BME280;3098;42.678;23.364;2023-02-21T00:37:39;95252.72;;;3.26;98.26
6134;BME280;3098;42.678;23.364;2023-02-21T00:40:25;95278.88;;;3.63;97.25
6134;BME280;3098;42.678;23.364;2023-02-21T00:43:10;95266.28;;;3.60;97.04
6134;BME280;3098;42.678;23.364;2023-02-21T00:45:54;95262.34;;;3.57;96.47
6134;BME280;3098;42.678;23.364;2023-02-21T00:48:40;95259.47;;;3.64;96.41
6134;BME280;3098;42.678;23.364;2023-02-21T00:51:24;95213.66;;;3.29;95.79
6134;BME280;3098;42.678;23.364;2023-02-21T00:54:09;95252.38;;;3.59;96.29
6134;BME280;3098;42.678;23.364;2023-02-21T00:56:54;95222.91;;;3.42;96.17
6134;BME280;3098;42.678;23.364;2023-02-21T00:59:39;95229.25;;;3.46;96.33
6134;BME280;3098;42.678;23.364;2023-02-21T01:02:24;95237.94;;;3.57;96.21
6134;BME280;3098;42.678;23.364;2023-02-21T01:05:08;95227.94;;;3.48;96.40
6134;BME280;3098;42.678;23.364;2023-02-21T01:07:53;95184.06;;;3.29;96.57
6134;BME280;3098;42.678;23.364;2023-02-21T01:10:37;95234.78;;;3.55;96.78
6134;BME280;3098;42.678;23.364;2023-02-21T01:13:24;95204.03;;;3.40;96.71
6134;BME280;3098;42.678;23.364;2023-02-21T01:16:08;95234.28;;;3.63;96.41
6134;BME280;3098;42.678;23.364;2023-02-21T01:18:53;95171.50;;;3.36;96.13
6134;BME280;3098;42.678;23.364;2023-02-21T01:21:37;95210.19;;;3.71;95.77
6134;BME280;3098;42.678;23.364;2023-02-21T01:24:22;95203.34;;;3.65;95.89
6134;BME280;3098;42.678;23.364;2023-02-21T01:27:06;95219.38;;;3.73;95.74
6134;BME280;3098;42.678;23.364;2023-02-21T01:29:52;95202.03;;;3.62;95.51
6134;BME280;3098;42.678;23.364;2023-02-21T01:32:36;95199.91;;;3.59;96.17
6134;BME280;3098;42.678;23.364;2023-02-21T01:35:21;95218.28;;;3.59;95.96
6134;BME280;3098;42.678;23.364;2023-02-21T01:38:06;95171.72;;;3.29;96.51
6134;BME280;3098;42.678;23.364;2023-02-21T01:40:50;95211.19;;;3.55;96.53
6134;BME280;3098;42.678;23.364;2023-02-21T01:43:34;95217.97;;;3.51;97.04
6134;BME280;3098;42.678;23.364;2023-02-21T01:46:20;95186.16;;;3.32;97.14
6134;BME280;3098;42.678;23.364;2023-02-21T01:49:09;95219.28;;;3.53;97.04
6134;BME280;3098;42.678;23.364;2023-02-21T01:51:56;95215.06;;;3.47;97.29
6134;BME280;3098;42.678;23.364;2023-02-21T01:54:45;95180.16;;;3.36;97.67
6134;BME280;3098;42.678;23.364;2023-02-21T01:57:32;95185.19;;;3.48;97.61
6134;BME280;3098;42.678;23.364;2023-02-21T02:00:18;95186.28;;;3.57;97.58
6134;BME280;3098;42.678;23.364;2023-02-21T02:03:05;95187.09;;;3.63;97.25
6134;BME280;3098;42.678;23.364;2023-02-21T02:05:53;95144.81;;;3.49;96.64
6134;BME280;3098;42.678;23.364;2023-02-21T02:08:39;95179.53;;;3.76;96.43
6134;BME280;3098;42.678;23.364;2023-02-21T02:11:36;95167.94;;;3.67;95.56
6134;BME280;3098;42.678;23.364;2023-02-21T02:14:37;95182.41;;;3.80;95.43
6134;BME280;3098;42.678;23.364;2023-02-21T02:17:20;95156.94;;;3.65;95.49
6134;BME280;3098;42.678;23.364;2023-02-21T02:20:25;95112.50;;;3.38;95.64
6134;BME280;3098;42.678;23.364;2023-02-21T02:23:30;95170.03;;;3.65;95.88
6134;BME280;3098;42.678;23.364;2023-02-21T02:26:37;95161.66;;;3.73;96.09
6134;BME280;3098;42.678;23.364;2023-02-21T02:29:21;95150.66;;;3.76;95.40
6134;BME280;3098;42.678;23.364;2023-02-21T02:32:07;95081.84;;;3.34;95.42
6134;BME280;3098;42.678;23.364;2023-02-21T02:34:54;95116.28;;;3.73;95.00
6134;BME280;3098;42.678;23.364;2023-02-21T02:37:27;95134.41;;;3.79;94.76
6134;BME280;3098;42.678;23.364;2023-02-21T02:40:01;95140.19;;;3.86;94.83
6134;BME280;3098;42.678;23.364;2023-02-21T02:42:48;95160.69;;;3.99;94.70
6134;BME280;3098;42.678;23.364;2023-02-21T02:45:24;95163.03;;;4.01;94.37
6134;BME280;3098;42.678;23.364;2023-02-21T02:47:56;95152.81;;;3.99;94.55
6134;BME280;3098;42.678;23.364;2023-02-21T02:50:26;95152.25;;;3.97;94.98
6134;BME280;3098;42.678;23.364;2023-02-21T02:52:57;95151.22;;;3.98;94.62
6134;BME280;3098;42.678;23.364;2023-02-21T02:55:33;95160.69;;;4.04;94.44
6134;BME280;3098;42.678;23.364;2023-02-21T02:58:01;95083.94;;;3.42;94.93
6134;BME280;3098;42.678;23.364;2023-02-21T03:00:29;95134.38;;;3.69;95.09
6134;BME280;3098;42.678;23.364;2023-02-21T03:03:08;95163.28;;;3.84;94.89
6134;BME280;3098;42.678;23.364;2023-02-21T03:05:59;95156.44;;;3.78;95.00
6134;BME280;3098;42.678;23.364;2023-02-21T03:08:38;95162.69;;;3.67;95.38
6134;BME280;3098;42.678;23.364;2023-02-21T03:11:14;95157.44;;;3.67;95.77
6134;BME280;3098;42.678;23.364;2023-02-21T03:13:46;95156.66;;;3.67;95.61
6134;BME280;3098;42.678;23.364;2023-02-21T03:16:22;95156.13;;;3.70;95.33
6134;BME280;3098;42.678;23.364;2023-02-21T03:18:55;95149.59;;;3.72;95.79
6134;BME280;3098;42.678;23.364;2023-02-21T03:21:28;95133.31;;;3.70;95.44
6134;BME280;3098;42.678;23.364;2023-02-21T03:23:59;95156.72;;;3.82;95.49
6134;BME280;3098;42.678;23.364;2023-02-21T03:26:31;95091.03;;;3.46;95.36
6134;BME280;3098;42.678;23.364;2023-02-21T03:29:00;95154.38;;;3.90;94.97
6134;BME280;3098;42.678;23.364;2023-02-21T03:31:34;95090.56;;;3.55;94.73
6134;BME280;3098;42.678;23.364;2023-02-21T03:34:02;95097.41;;;3.66;94.77
6134;BME280;3098;42.678;23.364;2023-02-21T03:36:31;95069.53;;;3.49;94.70
6134;BME280;3098;42.678;23.364;2023-02-21T03:38:58;95062.97;;;3.42;94.70
6134;BME280;3098;42.678;23.364;2023-02-21T03:41:26;95124.41;;;3.71;94.79
6134;BME280;3098;42.678;23.364;2023-02-21T03:43:53;95146.22;;;3.77;95.02
6134;BME280;3098;42.678;23.364;2023-02-21T03:46:20;95115.72;;;3.56;94.93
6134;BME280;3098;42.678;23.364;2023-02-21T03:48:47;95141.44;;;3.64;95.53
6134;BME280;3098;42.678;23.364;2023-02-21T03:51:15;95104.91;;;3.32;95.67
6134;BME280;3098;42.678;23.364;2023-02-21T03:53:44;95120.66;;;3.37;95.79
6134;BME280;3098;42.678;23.364;2023-02-21T03:56:11;94991.69;;;2.63;95.33
6134;BME280;3098;42.678;23.364;2023-02-21T03:58:39;95153.22;;;3.61;95.22
6134;BME280;3098;42.678;23.364;2023-02-21T04:01:06;95093.25;;;3.08;95.99
6134;BME280;3098;42.678;23.364;2023-02-21T04:03:33;95155.84;;;3.51;96.46
6134;BME280;3098;42.678;23.364;2023-02-21T04:06:00;95071.22;;;2.99;96.49
6134;BME280;3098;42.678;23.364;2023-02-21T04:08:28;95157.94;;;3.54;96.62
6134;BME280;3098;42.678;23.364;2023-02-21T04:10:57;95108.28;;;3.32;96.05
6134;BME280;3098;42.678;23.364;2023-02-21T04:13:24;95165.84;;;3.69;95.52
6134;BME280;3098;42.678;23.364;2023-02-21T04:15:51;95176.84;;;3.61;95.81
6134;BME280;3098;42.678;23.364;2023-02-21T04:18:18;95149.28;;;3.48;95.51
6134;BME280;3098;42.678;23.364;2023-02-21T04:20:45;95092.47;;;3.12;95.45
6134;BME280;3098;42.678;23.364;2023-02-21T04:23:16;95181.00;;;3.52;95.82
6134;BME280;3098;42.678;23.364;2023-02-21T04:25:45;95178.41;;;3.62;95.74
6134;BME280;3098;42.678;23.364;2023-02-21T04:28:14;95176.84;;;3.66;95.34
6134;BME280;3098;42.678;23.364;2023-02-21T04:30:41;95186.28;;;3.57;95.33
6134;BME280;3098;42.678;23.364;2023-02-21T04:33:08;95186.78;;;3.49;95.70
6134;BME280;3098;42.678;23.364;2023-02-21T04:35:35;95069.00;;;2.75;95.74
6134;BME280;3098;42.678;23.364;2023-02-21T04:38:03;95198.28;;;3.48;96.41
6134;BME280;3098;42.678;23.364;2023-02-21T04:40:30;95199.31;;;3.42;96.48
6134;BME280;3098;42.678;23.364;2023-02-21T04:42:57;95176.16;;;3.24;96.94
6134;BME280;3098;42.678;23.364;2023-02-21T04:45:27;95145.69;;;3.13;97.20
6134;BME280;3098;42.678;23.364;2023-02-21T04:47:54;94988.84;;;2.17;97.26
6134;BME280;3098;42.678;23.364;2023-02-21T04:50:21;95155.75;;;3.36;97.51
6134;BME280;3098;42.678;23.364;2023-02-21T04:52:49;94977.91;;;2.25;96.67
6134;BME280;3098;42.678;23.364;2023-02-21T04:55:16;95173.09;;;3.37;96.63
6134;BME280;3098;42.678;23.364;2023-02-21T04:57:43;95169.47;;;3.53;96.62
6134;BME280;3098;42.678;23.364;2023-02-21T05:00:12;95147.69;;;3.58;96.49
6134;BME280;3098;42.678;23.364;2023-02-21T05:02:43;95147.44;;;3.49;96.77
6134;BME280;3098;42.678;23.364;2023-02-21T05:05:11;95153.75;;;3.58;97.04
6134;BME280;3098;42.678;23.364;2023-02-21T05:07:40;95153.19;;;3.46;97.27
6134;BME280;3098;42.678;23.364;2023-02-21T05:10:08;95148.47;;;3.43;97.24
6134;BME280;3098;42.678;23.364;2023-02-21T05:12:35;95161.06;;;3.46;97.26
6134;BME280;3098;42.678;23.364;2023-02-21T05:15:05;95149.78;;;3.40;97.64
6134;BME280;3098;42.678;23.364;2023-02-21T05:17:32;95138.75;;;3.43;98.05
6134;BME280;3098;42.678;23.364;2023-02-21T05:20:01;95096.44;;;3.15;97.30
6134;BME280;3098;42.678;23.364;2023-02-21T05:22:29;95102.22;;;3.17;97.34
6134;BME280;3098;42.678;23.364;2023-02-21T05:24:57;95101.41;;;3.11;97.68
6134;BME280;3098;42.678;23.364;2023-02-21T05:27:24;95035.44;;;2.67;97.51
6134;BME280;3098;42.678;23.364;2023-02-21T05:29:53;95122.44;;;3.26;97.82
6134;BME280;3098;42.678;23.364;2023-02-21T05:32:22;95126.41;;;3.44;97.65
6134;BME280;3098;42.678;23.364;2023-02-21T05:34:49;95090.44;;;3.19;96.87
6134;BME280;3098;42.678;23.364;2023-02-21T05:37:18;95131.72;;;3.49;96.92
6134;BME280;3098;42.678;23.364;2023-02-21T05:39:45;95157.53;;;4.07;97.15
6134;BME280;3098;42.678;23.364;2023-02-21T05:42:13;95118.69;;;4.70;95.37
6134;BME280;3098;42.678;23.364;2023-02-21T05:44:42;95158.88;;;6.19;91.07
6134;BME280;3098;42.678;23.364;2023-02-21T05:47:10;95158.31;;;7.42;84.36
6134;BME280;3098;42.678;23.364;2023-02-21T05:49:38;95111.16;;;7.35;74.38
6134;BME280;3098;42.678;23.364;2023-02-21T05:52:06;95103.75;;;7.80;74.45
6134;BME280;3098;42.678;23.364;2023-02-21T05:54:35;95167.97;;;9.74;67.93
6134;BME280;3098;42.678;23.364;2023-02-21T05:57:03;95169.00;;;11.47;63.95
6134;BME280;3098;42.678;23.364;2023-02-21T05:59:30;95177.88;;;12.64;53.45
6134;BME280;3098;42.678;23.364;2023-02-21T06:01:58;95173.13;;;13.76;52.25
6134;BME280;3098;42.678;23.364;2023-02-21T06:04:25;95179.44;;;14.51;49.91
6134;BME280;3098;42.678;23.364;2023-02-21T06:06:52;95160.50;;;14.85;43.92
6134;BME280;3098;42.678;23.364;2023-02-21T06:09:20;95151.81;;;14.55;44.49
6134;BME280;3098;42.678;23.364;2023-02-21T06:11:50;95186.06;;;15.39;44.25
6134;BME280;3098;42.678;23.364;2023-02-21T06:14:18;95182.47;;;15.92;41.91
6134;BME280;3098;42.678;23.364;2023-02-21T06:16:46;95154.03;;;16.36;40.67
6134;BME280;3098;42.678;23.364;2023-02-21T06:19:15;95167.84;;;16.26;37.65
6134;BME280;3098;42.678;23.364;2023-02-21T06:21:42;95140.25;;;15.86;38.79
6134;BME280;3098;42.678;23.364;2023-02-21T06:24:10;95177.78;;;16.90;37.25
6134;BME280;3098;42.678;23.364;2023-02-21T06:26:39;95183.06;;;17.57;37.14
6134;BME280;3098;42.678;23.364;2023-02-21T06:29:10;95179.06;;;17.51;35.90
6134;BME280;3098;42.678;23.364;2023-02-21T06:31:37;95163.16;;;16.47;35.94
6134;BME280;3098;42.678;23.364;2023-02-21T06:34:04;95187.81;;;15.92;36.60
6134;BME280;3098;42.678;23.364;2023-02-21T06:36:32;95184.63;;;16.23;36.94
6134;BME280;3098;42.678;23.364;2023-02-21T06:39:00;95172.94;;;17.23;35.75
6134;BME280;3098;42.678;23.364;2023-02-21T06:41:29;95191.03;;;17.26;34.99
6134;BME280;3098;42.678;23.364;2023-02-21T06:43:58;95195.84;;;17.05;35.52
6134;BME280;3098;42.678;23.364;2023-02-21T06:46:29;95203.78;;;17.72;34.98
6134;BME280;3098;42.678;23.364;2023-02-21T06:48:57;95201.25;;;18.26;33.88
6134;BME280;3098;42.678;23.364;2023-02-21T06:51:25;95183.19;;;17.61;34.21
6134;BME280;3098;42.678;23.364;2023-02-21T06:53:54;95196.97;;;17.91;33.28
6134;BME280;3098;42.678;23.364;2023-02-21T06:56:21;95172.88;;;17.94;32.27
6134;BME280;3098;42.678;23.364;2023-02-21T06:58:49;95132.59;;;17.32;32.88
6134;BME280;3098;42.678;23.364;2023-02-21T07:01:17;95156.22;;;16.58;35.14
6134;BME280;3098;42.678;23.364;2023-02-21T07:03:50;95164.19;;;16.06;35.67
6134;BME280;3098;42.678;23.364;2023-02-21T07:06:18;95197.53;;;16.33;35.64
6134;BME280;3098;42.678;23.364;2023-02-21T07:08:46;95167.59;;;16.67;35.15
6134;BME280;3098;42.678;23.364;2023-02-21T07:11:15;95198.13;;;16.91;34.51
6134;BME280;3098;42.678;23.364;2023-02-21T07:13:46;95204.41;;;16.83;34.21
6134;BME280;3098;42.678;23.364;2023-02-21T07:16:13;95206.91;;;16.39;34.93
6134;BME280;3098;42.678;23.364;2023-02-21T07:18:42;95197.78;;;15.92;35.39
6134;BME280;3098;42.678;23.364;2023-02-21T07:21:12;95204.94;;;15.22;37.30
6134;BME280;3098;42.678;23.364;2023-02-21T07:23:41;95136.91;;;15.20;36.73
6134;BME280;3098;42.678;23.364;2023-02-21T07:26:09;95201.50;;;14.10;38.55
6134;BME280;3098;42.678;23.364;2023-02-21T07:28:36;95189.28;;;13.71;39.94
6134;BME280;3098;42.678;23.364;2023-02-21T07:31:04;95185.81;;;14.08;40.79
6134;BME280;3098;42.678;23.364;2023-02-21T07:33:31;95166.19;;;14.13;39.60
6134;BME280;3098;42.678;23.364;2023-02-21T07:35:59;95155.56;;;14.54;38.31
6134;BME280;3098;42.678;23.364;2023-02-21T07:38:29;95183.34;;;14.53;38.66
6134;BME280;3098;42.678;23.364;2023-02-21T07:40:59;95177.56;;;14.72;38.37
6134;BME280;3098;42.678;23.364;2023-02-21T07:43:29;95092.41;;;14.17;39.90
6134;BME280;3098;42.678;23.364;2023-02-21T07:45:56;95173.50;;;13.57;40.76
6134;BME280;3098;42.678;23.364;2023-02-21T07:48:24;95137.25;;;14.23;40.58
6134;BME280;3098;42.678;23.364;2023-02-21T07:50:51;95104.50;;;14.76;38.32
6134;BME280;3098;42.678;23.364;2023-02-21T07:53:20;95126.84;;;16.74;36.11
6134;BME280;3098;42.678;23.364;2023-02-21T07:55:51;95157.78;;;16.47;36.03
6134;BME280;3098;42.678;23.364;2023-02-21T07:58:18;95095.06;;;15.36;36.58
6134;BME280;3098;42.678;23.364;2023-02-21T08:00:48;95157.75;;;15.38;36.97
6134;BME280;3098;42.678;23.364;2023-02-21T08:03:25;95157.00;;;14.22;39.53
6134;BME280;3098;42.678;23.364;2023-02-21T08:05:52;95129.47;;;13.13;41.55
6134;BME280;3098;42.678;23.364;2023-02-21T08:08:19;95129.47;;;13.05;43.29
6134;BME280;3098;42.678;23.364;2023-02-21T08:10:49;95124.66;;;12.47;44.05
6134;BME280;3098;42.678;23.364;2023-02-21T08:13:16;95147.75;;;11.86;46.74
6134;BME280;3098;42.678;23.364;2023-02-21T08:15:44;95148.16;;;12.36;46.42
6134;BME280;3098;42.678;23.364;2023-02-21T08:18:14;95120.13;;;12.47;45.95
6134;BME280;3098;42.678;23.364;2023-02-21T08:20:45;95148.41;;;12.18;45.83
6134;BME280;3098;42.678;23.364;2023-02-21T08:23:13;95043.75;;;11.14;46.42
6134;BME280;3098;42.678;23.364;2023-02-21T08:25:40;95116.50;;;12.09;45.99
6134;BME280;3098;42.678;23.364;2023-02-21T08:28:09;95119.59;;;13.14;44.43
6134;BME280;3098;42.678;23.364;2023-02-21T08:30:39;95040.53;;;13.35;41.86
6134;BME280;3098;42.678;23.364;2023-02-21T08:33:07;95129.81;;;14.08;41.09
6134;BME280;3098;42.678;23.364;2023-02-21T08:35:35;95137.25;;;13.94;41.12
6134;BME280;3098;42.678;23.364;2023-02-21T08:38:02;95140.81;;;13.77;42.36
6134;BME280;3098;42.678;23.364;2023-02-21T08:40:30;95136.06;;;13.45;42.92
6134;BME280;3098;42.678;23.364;2023-02-21T08:42:58;95025.00;;;13.08;42.28
6134;BME280;3098;42.678;23.364;2023-02-21T08:45:28;95129.34;;;13.48;42.76
6134;BME280;3098;42.678;23.364;2023-02-21T08:47:55;95127.16;;;13.50;43.68
6134;BME280;3098;42.678;23.364;2023-02-21T08:50:24;95130.56;;;13.59;43.06
6134;BME280;3098;42.678;23.364;2023-02-21T08:52:52;95127.78;;;14.55;41.15
6134;BME280;3098;42.678;23.364;2023-02-21T08:55:19;95129.00;;;14.58;41.07
6134;BME280;3098;42.678;23.364;2023-02-21T08:57:48;95122.19;;;15.46;39.03
6134;BME280;3098;42.678;23.364;2023-02-21T09:00:16;95109.38;;;15.52;37.87
6134;BME280;3098;42.678;23.364;2023-02-21T09:02:45;95103.88;;;15.36;38.32
6134;BME280;3098;42.678;23.364;2023-02-21T09:05:16;95121.94;;;14.94;38.92
6134;BME280;3098;42.678;23.364;2023-02-21T09:07:47;95052.97;;;14.64;39.36
6134;BME280;3098;42.678;23.364;2023-02-21T09:10:15;95053.69;;;14.52;39.80
6134;BME280;3098;42.678;23.364;2023-02-21T09:12:42;95081.25;;;15.34;38.73
6134;BME280;3098;42.678;23.364;2023-02-21T09:15:10;95054.41;;;15.06;38.75
6134;BME280;3098;42.678;23.364;2023-02-21T09:17:40;95087.16;;;15.27;39.00
6134;BME280;3098;42.678;23.364;2023-02-21T09:20:11;95097.31;;;16.06;37.74
6134;BME280;3098;42.678;23.364;2023-02-21T09:22:41;95102.22;;;16.69;36.60
6134;BME280;3098;42.678;23.364;2023-02-21T09:25:10;95027.06;;;16.93;35.30
6134;BME280;3098;42.678;23.364;2023-02-21T09:27:37;95088.03;;;16.68;35.79
6134;BME280;3098;42.678;23.364;2023-02-21T09:30:07;95079.97;;;16.40;36.60
6134;BME280;3098;42.678;23.364;2023-02-21T09:32:36;95107.69;;;17.31;35.24
6134;BME280;3098;42.678;23.364;2023-02-21T09:35:05;95098.03;;;19.20;33.14
6134;BME280;3098;42.678;23.364;2023-02-21T09:37:37;95097.66;;;20.68;29.54
6134;BME280;3098;42.678;23.364;2023-02-21T09:40:11;95090.75;;;18.78;32.75
6134;BME280;3098;42.678;23.364;2023-02-21T09:42:41;95037.13;;;20.62;29.79
6134;BME280;3098;42.678;23.364;2023-02-21T09:45:14;95050.47;;;20.85;29.23
6134;BME280;3098;42.678;23.364;2023-02-21T09:47:48;95079.56;;;20.69;29.61
6134;BME280;3098;42.678;23.364;2023-02-21T09:50:19;95072.81;;;19.28;30.95
6134;BME280;3098;42.678;23.364;2023-02-21T09:52:56;95076.72;;;19.53;30.59
6134;BME280;3098;42.678;23.364;2023-02-21T09:55:29;95067.38;;;21.55;28.69
6134;BME280;3098;42.678;23.364;2023-02-21T09:58:00;95068.91;;;20.20;29.60
6134;BME280;3098;42.678;23.364;2023-02-21T10:00:38;94916.19;;;18.02;31.62
6134;BME280;3098;42.678;23.364;2023-02-21T10:03:22;95059.75;;;19.26;31.29
6134;BME280;3098;42.678;23.364;2023-02-21T10:06:00;95036.19;;;19.91;29.81
6134;BME280;3098;42.678;23.364;2023-02-21T10:08:37;95052.28;;;20.74;29.52
6134;BME280;3098;42.678;23.364;2023-02-21T10:11:21;95006.25;;;22.53;26.68
6134;BME280;3098;42.678;23.364;2023-02-21T10:13:55;95049.41;;;23.85;25.08
6134;BME280;3098;42.678;23.364;2023-02-21T10:16:32;94931.22;;;20.58;27.22
6134;BME280;3098;42.678;23.364;2023-02-21T10:19:08;95035.91;;;21.77;27.08
6134;BME280;3098;42.678;23.364;2023-02-21T10:21:43;94920.06;;;20.59;27.31
6134;BME280;3098;42.678;23.364;2023-02-21T10:24:15;95020.69;;;22.81;25.95
6134;BME280;3098;42.678;23.364;2023-02-21T10:26:49;95024.16;;;22.89;26.87
6134;BME280;3098;42.678;23.364;2023-02-21T10:29:21;95017.97;;;22.81;26.24
6134;BME280;3098;42.678;23.364;2023-02-21T10:31:53;95016.94;;;23.64;25.27
6134;BME280;3098;42.678;23.364;2023-02-21T10:34:25;95020.00;;;23.59;25.71
6134;BME280;3098;42.678;23.364;2023-02-21T10:36:53;95013.06;;;23.40;25.54
6134;BME280;3098;42.678;23.364;2023-02-21T10:39:29;94967.44;;;23.53;24.48
6134;BME280;3098;42.678;23.364;2023-02-21T10:41:59;94890.78;;;21.02;26.48
6134;BME280;3098;42.678;23.364;2023-02-21T10:44:29;94984.81;;;23.13;25.41
6134;BME280;3098;42.678;23.364;2023-02-21T10:47:01;94964.56;;;24.30;23.20
6134;BME280;3098;42.678;23.364;2023-02-21T10:49:33;94970.19;;;20.68;26.89
6134;BME280;3098;42.678;23.364;2023-02-21T10:52:06;94953.59;;;21.06;27.02
6134;BME280;3098;42.678;23.364;2023-02-21T10:54:37;94978.44;;;21.73;25.81
6134;BME280;3098;42.678;23.364;2023-02-21T10:57:06;94849.19;;;21.61;23.32
6134;BME280;3098;42.678;23.364;2023-02-21T10:59:36;94975.16;;;22.04;22.57
6134;BME280;3098;42.678;23.364;2023-02-21T11:02:27;94965.88;;;21.44;22.46
6134;BME280;3098;42.678;23.364;2023-02-21T11:05:07;94945.25;;;20.74;23.02
6134;BME280;3098;42.678;23.364;2023-02-21T11:07:35;94901.00;;;21.23;22.54
6134;BME280;3098;42.678;23.364;2023-02-21T11:10:25;94921.13;;;20.88;23.37
6134;BME280;3098;42.678;23.364;2023-02-21T11:13:01;94903.75;;;20.45;23.48
6134;BME280;3098;42.678;23.364;2023-02-21T11:15:29;94940.25;;;20.39;23.60
6134;BME280;3098;42.678;23.364;2023-02-21T11:18:13;94941.03;;;21.17;23.01
6134;BME280;3098;42.678;23.364;2023-02-21T11:20:40;94927.38;;;21.50;23.08
6134;BME280;3098;42.678;23.364;2023-02-21T11:23:23;94909.78;;;21.12;23.22
6134;BME280;3098;42.678;23.364;2023-02-21T11:25:59;94871.25;;;20.28;23.99
6134;BME280;3098;42.678;23.364;2023-02-21T11:28:36;94902.66;;;20.50;23.66
6134;BME280;3098;42.678;23.364;2023-02-21T11:31:10;94856.19;;;20.23;23.21
6134;BME280;3098;42.678;23.364;2023-02-21T11:33:43;94903.13;;;21.57;22.89
6134;BME280;3098;42.678;23.364;2023-02-21T11:36:17;94901.47;;;21.39;23.03
6134;BME280;3098;42.678;23.364;2023-02-21T11:39:00;94868.00;;;20.52;23.62
6134;BME280;3098;42.678;23.364;2023-02-21T11:41:37;94873.38;;;20.89;23.49
6134;BME280;3098;42.678;23.364;2023-02-21T11:44:26;94873.34;;;21.43;22.82
6134;BME280;3098;42.678;23.364;2023-02-21T11:47:01;94877.09;;;20.74;23.72
6134;BME280;3098;42.678;23.364;2023-02-21T11:49:45;94840.19;;;20.41;23.66
6134;BME280;3098;42.678;23.364;2023-02-21T11:52:18;94875.34;;;20.55;23.85
6134;BME280;3098;42.678;23.364;2023-02-21T11:54:48;94758.31;;;20.08;23.53
6134;BME280;3098;42.678;23.364;2023-02-21T11:57:20;94876.06;;;20.92;23.31
6134;BME280;3098;42.678;23.364;2023-02-21T11:59:54;94787.06;;;19.97;24.41
6134;BME280;3098;42.678;23.364;2023-02-21T12:02:45;94816.25;;;20.29;24.73
6134;BME280;3098;42.678;23.364;2023-02-21T12:05:29;94859.53;;;20.50;24.57
6134;BME280;3098;42.678;23.364;2023-02-21T12:08:18;94665.41;;;19.41;24.60
6134;BME280;3098;42.678;23.364;2023-02-21T12:10:59;94813.00;;;20.53;24.43
6134;BME280;3098;42.678;23.364;2023-02-21T12:13:38;94839.31;;;20.70;24.01
6134;BME280;3098;42.678;23.364;2023-02-21T12:16:19;94815.84;;;19.93;25.06
6134;BME280;3098;42.678;23.364;2023-02-21T12:19:02;94838.13;;;20.68;24.31
6134;BME280;3098;42.678;23.364;2023-02-21T12:21:57;94797.75;;;19.90;24.96
6134;BME280;3098;42.678;23.364;2023-02-21T12:24:45;94823.56;;;20.28;25.04
6134;BME280;3098;42.678;23.364;2023-02-21T12:27:17;94813.94;;;19.94;25.54
6134;BME280;3098;42.678;23.364;2023-02-21T12:30:03;94807.31;;;19.51;26.01
6134;BME280;3098;42.678;23.364;2023-02-21T12:32:48;94807.63;;;19.79;25.64
6134;BME280;3098;42.678;23.364;2023-02-21T12:38:25;94777.38;;;19.26;26.42
6134;BME280;3098;42.678;23.364;2023-02-21T12:41:03;94781.47;;;19.17;26.67
6134;BME280;3098;42.678;23.364;2023-02-21T12:43:47;94802.66;;;19.48;26.43
6134;BME280;3098;42.678;23.364;2023-02-21T12:46:24;94802.84;;;19.36;26.32
6134;BME280;3098;42.678;23.364;2023-02-21T12:48:56;94786.69;;;19.62;26.00
6134;BME280;3098;42.678;23.364;2023-02-21T12:51:29;94793.41;;;19.79;25.67
6134;BME280;3098;42.678;23.364;2023-02-21T12:54:01;94778.13;;;19.53;26.14
6134;BME280;3098;42.678;23.364;2023-02-21T12:56:35;94769.06;;;19.68;26.01
6134;BME280;3098;42.678;23.364;2023-02-21T12:59:10;94794.09;;;19.72;26.15
6134;BME280;3098;42.678;23.364;2023-02-21T13:01:46;94750.56;;;19.33;26.32
6134;BME280;3098;42.678;23.364;2023-02-21T13:04:23;94635.44;;;18.20;26.78
6134;BME280;3098;42.678;23.364;2023-02-21T13:06:58;94741.78;;;18.77;27.07
6134;BME280;3098;42.678;23.364;2023-02-21T13:09:33;94702.25;;;18.51;27.21
6134;BME280;3098;42.678;23.364;2023-02-21T13:12:06;94775.19;;;19.06;27.12
6134;BME280;3098;42.678;23.364;2023-02-21T13:14:40;94780.78;;;18.93;27.26
6134;BME280;3098;42.678;23.364;2023-02-21T13:17:11;94773.25;;;18.76;27.40
6134;BME280;3098;42.678;23.364;2023-02-21T13:19:42;94750.09;;;18.68;27.23
6134;BME280;3098;42.678;23.364;2023-02-21T13:25:43;94723.63;;;18.44;27.14
6134;BME280;3098;42.678;23.364;2023-02-21T13:28:17;94767.91;;;18.80;27.32
6134;BME280;3098;42.678;23.364;2023-02-21T13:30:49;94761.38;;;18.77;27.08
6134;BME280;3098;42.678;23.364;2023-02-21T13:33:35;94676.13;;;18.22;27.11
6134;BME280;3098;42.678;23.364;2023-02-21T13:36:20;94766.28;;;18.72;27.42
6134;BME280;3098;42.678;23.364;2023-02-21T13:38:57;94751.75;;;18.50;27.48
6134;BME280;3098;42.678;23.364;2023-02-21T13:41:27;94762.84;;;18.49;27.75
6134;BME280;3098;42.678;23.364;2023-02-21T13:43:57;94761.94;;;18.41;27.78
6134;BME280;3098;42.678;23.364;2023-02-21T13:47:02;94713.88;;;18.10;27.58
6134;BME280;3098;42.678;23.364;2023-02-21T13:49:40;94745.97;;;18.48;27.63
6134;BME280;3098;42.678;23.364;2023-02-21T13:55:24;94703.78;;;18.26;27.30
6134;BME280;3098;42.678;23.364;2023-02-21T13:58:29;94754.44;;;18.50;27.60
6134;BME280;3098;42.678;23.364;2023-02-21T14:01:14;94718.81;;;18.30;27.56
6134;BME280;3098;42.678;23.364;2023-02-21T14:03:41;94704.66;;;18.07;27.65